sensor_id;sensor_type;location;lat;lon;timestamp;temperature;humidity
75164;HTU21D;63746;45.402;37.922;2023-06-14T00:00:59;20.16;67.57
75164;HTU21D;63746;45.402;37.922;2023-06-14T00:03:25;20.18;67.58
75164;HTU21D;63746;45.402;37.922;2023-06-14T00:05:51;20.20;67.55
75164;HTU21D;63746;45.402;37.922;2023-06-14T00:08:17;20.19;67.52
75164;HTU21D;63746;45.402;37.922;2023-06-14T00:10:44;20.21;67.52
75164;HTU21D;63746;45.402;37.922;2023-06-14T00:13:10;20.21;67.50
75164;HTU21D;63746;45.402;37.922;2023-06-14T00:15:37;20.21;67.48
75164;HTU21D;63746;45.402;37.922;2023-06-14T00:18:03;20.21;67.42
75164;HTU21D;63746;45.402;37.922;2023-06-14T00:20:32;20.21;67.38
75164;HTU21D;63746;45.402;37.922;2023-06-14T00:22:58;20.20;68.44
75164;HTU21D;63746;45.402;37.922;2023-06-14T00:25:24;20.18;67.49
75164;HTU21D;63746;45.402;37.922;2023-06-14T00:27:54;20.17;67.49
75164;HTU21D;63746;45.402;37.922;2023-06-14T00:30:20;20.16;67.44
75164;HTU21D;63746;45.402;37.922;2023-06-14T00:32:47;20.14;67.40
75164;HTU21D;63746;45.402;37.922;2023-06-14T00:35:13;20.12;67.43
75164;HTU21D;63746;45.402;37.922;2023-06-14T00:37:39;20.10;67.49
75164;HTU21D;63746;45.402;37.922;2023-06-14T00:40:06;20.11;67.52
75164;HTU21D;63746;45.402;37.922;2023-06-14T00:42:32;20.11;67.55
75164;HTU21D;63746;45.402;37.922;2023-06-14T00:44:59;20.12;67.58
75164;HTU21D;63746;45.402;37.922;2023-06-14T00:47:25;20.14;67.55
75164;HTU21D;63746;45.402;37.922;2023-06-14T00:49:53;20.14;67.50
75164;HTU21D;63746;45.402;37.922;2023-06-14T00:52:22;20.14;67.47
75164;HTU21D;63746;45.402;37.922;2023-06-14T00:54:50;20.15;67.49
75164;HTU21D;63746;45.402;37.922;2023-06-14T00:57:16;20.16;67.52
75164;HTU21D;63746;45.402;37.922;2023-06-14T00:59:44;20.16;67.54
75164;HTU21D;63746;45.402;37.922;2023-06-14T01:02:11;20.17;67.51
75164;HTU21D;63746;45.402;37.922;2023-06-14T01:04:39;20.19;67.55
75164;HTU21D;63746;45.402;37.922;2023-06-14T01:07:23;20.20;67.76
75164;HTU21D;63746;45.402;37.922;2023-06-14T01:15:35;20.19;67.44
75164;HTU21D;63746;45.402;37.922;2023-06-14T01:18:01;20.19;67.43
75164;HTU21D;63746;45.402;37.922;2023-06-14T01:20:33;20.19;67.46
75164;HTU21D;63746;45.402;37.922;2023-06-14T01:23:03;20.19;67.45
75164;HTU21D;63746;45.402;37.922;2023-06-14T01:25:30;20.18;67.44
75164;HTU21D;63746;45.402;37.922;2023-06-14T01:27:59;20.18;67.50
75164;HTU21D;63746;45.402;37.922;2023-06-14T01:30:26;20.17;67.47
75164;HTU21D;63746;45.402;37.922;2023-06-14T01:32:53;20.17;67.52
75164;HTU21D;63746;45.402;37.922;2023-06-14T01:35:20;20.18;67.53
75164;HTU21D;63746;45.402;37.922;2023-06-14T01:37:48;20.19;67.56
75164;HTU21D;63746;45.402;37.922;2023-06-14T01:40:15;20.20;67.55
75164;HTU21D;63746;45.402;37.922;2023-06-14T01:42:42;20.20;67.53
75164;HTU21D;63746;45.402;37.922;2023-06-14T01:45:10;20.21;67.50
75164;HTU21D;63746;45.402;37.922;2023-06-14T01:47:37;20.20;67.48
75164;HTU21D;63746;45.402;37.922;2023-06-14T01:50:04;20.21;67.46
75164;HTU21D;63746;45.402;37.922;2023-06-14T01:52:30;20.21;67.46
75164;HTU21D;63746;45.402;37.922;2023-06-14T01:54:56;20.21;67.48
75164;HTU21D;63746;45.402;37.922;2023-06-14T01:57:24;20.21;67.52
75164;HTU21D;63746;45.402;37.922;2023-06-14T01:59:52;20.21;67.49
75164;HTU21D;63746;45.402;37.922;2023-06-14T02:02:18;20.19;67.43
75164;HTU21D;63746;45.402;37.922;2023-06-14T02:04:44;20.18;67.43
75164;HTU21D;63746;45.402;37.922;2023-06-14T02:07:13;20.14;67.46
75164;HTU21D;63746;45.402;37.922;2023-06-14T02:09:41;20.13;67.49
75164;HTU21D;63746;45.402;37.922;2023-06-14T02:12:08;20.12;67.52
75164;HTU21D;63746;45.402;37.922;2023-06-14T02:14:34;20.10;67.53
75164;HTU21D;63746;45.402;37.922;2023-06-14T02:17:00;20.09;67.58
75164;HTU21D;63746;45.402;37.922;2023-06-14T02:19:26;20.10;67.59
75164;HTU21D;63746;45.402;37.922;2023-06-14T02:21:52;20.10;67.60
75164;HTU21D;63746;45.402;37.922;2023-06-14T02:24:18;20.11;67.59
75164;HTU21D;63746;45.402;37.922;2023-06-14T02:26:44;20.10;67.54
75164;HTU21D;63746;45.402;37.922;2023-06-14T02:29:14;20.09;67.53
75164;HTU21D;63746;45.402;37.922;2023-06-14T02:31:41;20.06;67.55
75164;HTU21D;63746;45.402;37.922;2023-06-14T02:34:06;20.04;67.59
75164;HTU21D;63746;45.402;37.922;2023-06-14T02:36:35;20.05;67.63
75164;HTU21D;63746;45.402;37.922;2023-06-14T02:39:09;20.05;67.70
75164;HTU21D;63746;45.402;37.922;2023-06-14T02:41:36;20.05;67.65
75164;HTU21D;63746;45.402;37.922;2023-06-14T02:44:02;20.07;67.67
75164;HTU21D;63746;45.402;37.922;2023-06-14T02:46:28;20.06;67.65
75164;HTU21D;63746;45.402;37.922;2023-06-14T02:48:54;20.05;67.60
75164;HTU21D;63746;45.402;37.922;2023-06-14T02:51:20;20.04;67.55
75164;HTU21D;63746;45.402;37.922;2023-06-14T02:53:46;20.02;67.55
75164;HTU21D;63746;45.402;37.922;2023-06-14T02:56:12;20.01;67.60
75164;HTU21D;63746;45.402;37.922;2023-06-14T02:58:39;20.01;67.64
75164;HTU21D;63746;45.402;37.922;2023-06-14T03:01:07;20.01;67.65
75164;HTU21D;63746;45.402;37.922;2023-06-14T03:03:34;20.01;67.67
75164;HTU21D;63746;45.402;37.922;2023-06-14T03:06:00;20.02;67.68
75164;HTU21D;63746;45.402;37.922;2023-06-14T03:08:32;20.02;67.68
75164;HTU21D;63746;45.402;37.922;2023-06-14T03:11:07;20.02;67.71
75164;HTU21D;63746;45.402;37.922;2023-06-14T03:13:35;20.02;67.74
75164;HTU21D;63746;45.402;37.922;2023-06-14T03:16:03;20.04;67.74
75164;HTU21D;63746;45.402;37.922;2023-06-14T03:18:31;20.05;67.75
75164;HTU21D;63746;45.402;37.922;2023-06-14T03:21:02;20.06;67.75
75164;HTU21D;63746;45.402;37.922;2023-06-14T03:23:29;20.05;67.72
75164;HTU21D;63746;45.402;37.922;2023-06-14T03:25:55;20.07;67.69
75164;HTU21D;63746;45.402;37.922;2023-06-14T03:28:21;20.09;67.69
75164;HTU21D;63746;45.402;37.922;2023-06-14T03:30:48;20.07;67.72
75164;HTU21D;63746;45.402;37.922;2023-06-14T03:33:14;20.10;67.74
75164;HTU21D;63746;45.402;37.922;2023-06-14T03:35:41;20.11;67.75
75164;HTU21D;63746;45.402;37.922;2023-06-14T03:38:08;20.11;67.75
75164;HTU21D;63746;45.402;37.922;2023-06-14T03:40:35;20.13;67.76
75164;HTU21D;63746;45.402;37.922;2023-06-14T03:43:03;20.14;67.76
75164;HTU21D;63746;45.402;37.922;2023-06-14T03:45:29;20.14;67.77
75164;HTU21D;63746;45.402;37.922;2023-06-14T03:47:56;20.16;67.76
75164;HTU21D;63746;45.402;37.922;2023-06-14T03:50:23;20.18;67.76
75164;HTU21D;63746;45.402;37.922;2023-06-14T03:52:50;20.19;67.78
75164;HTU21D;63746;45.402;37.922;2023-06-14T03:55:17;20.21;67.79
75164;HTU21D;63746;45.402;37.922;2023-06-14T03:57:44;20.22;67.80
75164;HTU21D;63746;45.402;37.922;2023-06-14T04:00:14;20.25;67.77
75164;HTU21D;63746;45.402;37.922;2023-06-14T04:02:40;20.25;67.79
75164;HTU21D;63746;45.402;37.922;2023-06-14T04:05:09;20.26;67.80
75164;HTU21D;63746;45.402;37.922;2023-06-14T04:07:37;20.28;69.16
75164;HTU21D;63746;45.402;37.922;2023-06-14T04:10:06;20.27;67.97
75164;HTU21D;63746;45.402;37.922;2023-06-14T04:12:33;20.29;67.97
75164;HTU21D;63746;45.402;37.922;2023-06-14T04:14:59;20.30;67.96
75164;HTU21D;63746;45.402;37.922;2023-06-14T04:17:30;20.31;67.95
75164;HTU21D;63746;45.402;37.922;2023-06-14T04:19:59;20.34;67.97
75164;HTU21D;63746;45.402;37.922;2023-06-14T04:22:26;20.35;67.95
75164;HTU21D;63746;45.402;37.922;2023-06-14T04:24:57;20.39;67.96
75164;HTU21D;63746;45.402;37.922;2023-06-14T04:27:24;20.40;67.97
75164;HTU21D;63746;45.402;37.922;2023-06-14T04:29:52;20.44;68.04
75164;HTU21D;63746;45.402;37.922;2023-06-14T04:32:28;20.48;68.10
75164;HTU21D;63746;45.402;37.922;2023-06-14T04:34:56;20.56;68.20
75164;HTU21D;63746;45.402;37.922;2023-06-14T04:37:25;20.60;68.07
75164;HTU21D;63746;45.402;37.922;2023-06-14T04:39:55;20.64;68.01
75164;HTU21D;63746;45.402;37.922;2023-06-14T04:42:22;20.69;68.01
75164;HTU21D;63746;45.402;37.922;2023-06-14T04:44:51;20.73;67.97
75164;HTU21D;63746;45.402;37.922;2023-06-14T04:47:22;20.75;67.97
75164;HTU21D;63746;45.402;37.922;2023-06-14T04:49:47;20.78;67.93
75164;HTU21D;63746;45.402;37.922;2023-06-14T04:52:13;20.83;67.97
75164;HTU21D;63746;45.402;37.922;2023-06-14T04:54:43;20.86;67.98
75164;HTU21D;63746;45.402;37.922;2023-06-14T04:57:11;20.89;67.98
75164;HTU21D;63746;45.402;37.922;2023-06-14T04:59:44;20.94;67.98
75164;HTU21D;63746;45.402;37.922;2023-06-14T05:02:11;21.00;68.00
75164;HTU21D;63746;45.402;37.922;2023-06-14T05:04:38;21.06;68.02
75164;HTU21D;63746;45.402;37.922;2023-06-14T05:07:08;21.15;68.17
75164;HTU21D;63746;45.402;37.922;2023-06-14T05:09:35;21.24;68.02
75164;HTU21D;63746;45.402;37.922;2023-06-14T05:12:02;21.32;67.99
75164;HTU21D;63746;45.402;37.922;2023-06-14T05:14:28;21.39;67.97
75164;HTU21D;63746;45.402;37.922;2023-06-14T05:16:56;21.50;68.01
75164;HTU21D;63746;45.402;37.922;2023-06-14T05:19:22;21.61;68.02
75164;HTU21D;63746;45.402;37.922;2023-06-14T05:21:48;21.74;67.97
75164;HTU21D;63746;45.402;37.922;2023-06-14T05:24:15;21.83;67.91
75164;HTU21D;63746;45.402;37.922;2023-06-14T05:26:42;21.94;67.84
75164;HTU21D;63746;45.402;37.922;2023-06-14T05:29:08;22.06;67.74
75164;HTU21D;63746;45.402;37.922;2023-06-14T05:31:34;22.17;67.65
75164;HTU21D;63746;45.402;37.922;2023-06-14T05:34:00;22.26;67.62
75164;HTU21D;63746;45.402;37.922;2023-06-14T05:36:26;22.35;67.55
75164;HTU21D;63746;45.402;37.922;2023-06-14T05:38:53;22.46;67.54
75164;HTU21D;63746;45.402;37.922;2023-06-14T05:41:28;22.55;67.43
75164;HTU21D;63746;45.402;37.922;2023-06-14T05:43:55;22.66;67.36
75164;HTU21D;63746;45.402;37.922;2023-06-14T05:46:22;22.73;67.31
75164;HTU21D;63746;45.402;37.922;2023-06-14T05:48:53;22.83;67.26
75164;HTU21D;63746;45.402;37.922;2023-06-14T05:51:19;22.93;67.19
75164;HTU21D;63746;45.402;37.922;2023-06-14T05:53:46;23.00;67.11
75164;HTU21D;63746;45.402;37.922;2023-06-14T05:56:13;23.06;67.06
75164;HTU21D;63746;45.402;37.922;2023-06-14T05:58:39;23.11;66.96
75164;HTU21D;63746;45.402;37.922;2023-06-14T06:01:05;23.14;66.93
75164;HTU21D;63746;45.402;37.922;2023-06-14T06:03:31;23.18;66.97
75164;HTU21D;63746;45.402;37.922;2023-06-14T06:05:58;23.26;67.02
75164;HTU21D;63746;45.402;37.922;2023-06-14T06:08:24;23.35;67.02
75164;HTU21D;63746;45.402;37.922;2023-06-14T06:10:50;23.43;66.96
75164;HTU21D;63746;45.402;37.922;2023-06-14T06:13:16;23.50;66.88
75164;HTU21D;63746;45.402;37.922;2023-06-14T06:15:42;23.57;66.85
75164;HTU21D;63746;45.402;37.922;2023-06-14T06:18:08;23.65;66.85
75164;HTU21D;63746;45.402;37.922;2023-06-14T06:20:34;23.74;66.84
75164;HTU21D;63746;45.402;37.922;2023-06-14T06:23:00;23.85;66.81
75164;HTU21D;63746;45.402;37.922;2023-06-14T06:25:27;23.95;66.73
75164;HTU21D;63746;45.402;37.922;2023-06-14T06:27:54;24.04;66.69
75164;HTU21D;63746;45.402;37.922;2023-06-14T06:30:20;24.13;66.62
75164;HTU21D;63746;45.402;37.922;2023-06-14T06:32:46;24.23;66.56
75164;HTU21D;63746;45.402;37.922;2023-06-14T06:35:13;24.29;66.43
75164;HTU21D;63746;45.402;37.922;2023-06-14T06:37:41;24.35;66.43
75164;HTU21D;63746;45.402;37.922;2023-06-14T06:40:07;24.44;66.43
75164;HTU21D;63746;45.402;37.922;2023-06-14T06:42:34;24.53;66.37
75164;HTU21D;63746;45.402;37.922;2023-06-14T06:45:04;24.59;66.26
75164;HTU21D;63746;45.402;37.922;2023-06-14T06:47:30;24.65;66.27
75164;HTU21D;63746;45.402;37.922;2023-06-14T06:49:56;24.74;66.27
75164;HTU21D;63746;45.402;37.922;2023-06-14T06:52:22;24.83;66.20
75164;HTU21D;63746;45.402;37.922;2023-06-14T06:54:48;24.91;66.18
75164;HTU21D;63746;45.402;37.922;2023-06-14T06:57:14;25.00;66.12
75164;HTU21D;63746;45.402;37.922;2023-06-14T06:59:40;25.08;66.08
75164;HTU21D;63746;45.402;37.922;2023-06-14T07:02:06;25.17;66.01
75164;HTU21D;63746;45.402;37.922;2023-06-14T07:04:32;25.23;65.91
75164;HTU21D;63746;45.402;37.922;2023-06-14T07:06:58;25.30;65.88
75164;HTU21D;63746;45.402;37.922;2023-06-14T07:09:24;25.37;65.86
75164;HTU21D;63746;45.402;37.922;2023-06-14T07:11:50;25.46;65.82
75164;HTU21D;63746;45.402;37.922;2023-06-14T07:14:16;25.53;65.78
75164;HTU21D;63746;45.402;37.922;2023-06-14T07:16:42;25.61;65.76
75164;HTU21D;63746;45.402;37.922;2023-06-14T07:19:09;25.69;65.75
75164;HTU21D;63746;45.402;37.922;2023-06-14T07:21:36;25.80;65.69
75164;HTU21D;63746;45.402;37.922;2023-06-14T07:24:05;25.86;65.53
75164;HTU21D;63746;45.402;37.922;2023-06-14T07:26:32;25.87;65.39
75164;HTU21D;63746;45.402;37.922;2023-06-14T07:28:58;25.84;65.30
75164;HTU21D;63746;45.402;37.922;2023-06-14T07:31:24;25.87;65.40
75164;HTU21D;63746;45.402;37.922;2023-06-14T07:33:50;25.89;65.37
75164;HTU21D;63746;45.402;37.922;2023-06-14T07:36:16;25.86;65.33
75164;HTU21D;63746;45.402;37.922;2023-06-14T07:38:43;25.84;65.33
75164;HTU21D;63746;45.402;37.922;2023-06-14T07:41:09;25.84;65.37
75164;HTU21D;63746;45.402;37.922;2023-06-14T07:43:35;25.88;65.50
75164;HTU21D;63746;45.402;37.922;2023-06-14T07:46:01;25.95;65.58
75164;HTU21D;63746;45.402;37.922;2023-06-14T07:48:28;26.06;65.57
75164;HTU21D;63746;45.402;37.922;2023-06-14T07:50:54;26.11;65.45
75164;HTU21D;63746;45.402;37.922;2023-06-14T07:53:20;26.18;65.47
75164;HTU21D;63746;45.402;37.922;2023-06-14T07:55:46;26.25;65.45
75164;HTU21D;63746;45.402;37.922;2023-06-14T07:58:14;26.37;65.44
75164;HTU21D;63746;45.402;37.922;2023-06-14T08:00:40;26.47;65.30
75164;HTU21D;63746;45.402;37.922;2023-06-14T08:03:06;26.55;65.30
75164;HTU21D;63746;45.402;37.922;2023-06-14T08:05:32;26.62;65.11
75164;HTU21D;63746;45.402;37.922;2023-06-14T08:07:58;26.62;64.95
75164;HTU21D;63746;45.402;37.922;2023-06-14T08:10:24;26.57;64.89
75164;HTU21D;63746;45.402;37.922;2023-06-14T08:12:50;26.55;64.89
75164;HTU21D;63746;45.402;37.922;2023-06-14T08:15:17;26.52;64.96
75164;HTU21D;63746;45.402;37.922;2023-06-14T08:17:46;26.53;65.01
75164;HTU21D;63746;45.402;37.922;2023-06-14T08:20:12;26.54;65.02
75164;HTU21D;63746;45.402;37.922;2023-06-14T08:22:42;26.57;65.12
75164;HTU21D;63746;45.402;37.922;2023-06-14T08:25:09;26.64;65.08
75164;HTU21D;63746;45.402;37.922;2023-06-14T08:27:35;26.66;65.08
75164;HTU21D;63746;45.402;37.922;2023-06-14T08:30:01;26.67;64.98
75164;HTU21D;63746;45.402;37.922;2023-06-14T08:32:28;26.66;64.88
75164;HTU21D;63746;45.402;37.922;2023-06-14T08:34:54;26.62;64.86
75164;HTU21D;63746;45.402;37.922;2023-06-14T08:37:20;26.57;64.90
75164;HTU21D;63746;45.402;37.922;2023-06-14T08:39:46;26.57;64.94
75164;HTU21D;63746;45.402;37.922;2023-06-14T08:42:12;26.54;64.95
75164;HTU21D;63746;45.402;37.922;2023-06-14T08:44:39;26.51;64.95
75164;HTU21D;63746;45.402;37.922;2023-06-14T08:47:07;26.52;65.09
75164;HTU21D;63746;45.402;37.922;2023-06-14T08:49:36;26.56;65.14
75164;HTU21D;63746;45.402;37.922;2023-06-14T08:52:05;26.57;65.11
75164;HTU21D;63746;45.402;37.922;2023-06-14T08:54:33;26.60;65.01
75164;HTU21D;63746;45.402;37.922;2023-06-14T08:57:02;26.57;64.98
75164;HTU21D;63746;45.402;37.922;2023-06-14T08:59:29;26.54;65.03
75164;HTU21D;63746;45.402;37.922;2023-06-14T09:01:57;26.49;64.92
75164;HTU21D;63746;45.402;37.922;2023-06-14T09:04:23;26.43;64.93
75164;HTU21D;63746;45.402;37.922;2023-06-14T09:06:56;26.36;64.94
75164;HTU21D;63746;45.402;37.922;2023-06-14T09:09:22;26.31;64.95
75164;HTU21D;63746;45.402;37.922;2023-06-14T09:11:50;26.23;64.98
75164;HTU21D;63746;45.402;37.922;2023-06-14T09:14:18;26.19;65.01
75164;HTU21D;63746;45.402;37.922;2023-06-14T09:16:44;26.12;65.17
75164;HTU21D;63746;45.402;37.922;2023-06-14T09:19:23;26.05;65.09
75164;HTU21D;63746;45.402;37.922;2023-06-14T09:21:49;25.96;65.14
75164;HTU21D;63746;45.402;37.922;2023-06-14T09:24:15;25.91;65.22
75164;HTU21D;63746;45.402;37.922;2023-06-14T09:26:41;25.89;65.28
75164;HTU21D;63746;45.402;37.922;2023-06-14T09:29:07;25.86;65.31
75164;HTU21D;63746;45.402;37.922;2023-06-14T09:31:35;25.83;65.33
75164;HTU21D;63746;45.402;37.922;2023-06-14T09:34:02;25.80;65.34
75164;HTU21D;63746;45.402;37.922;2023-06-14T09:36:30;25.77;65.36
75164;HTU21D;63746;45.402;37.922;2023-06-14T09:38:58;25.76;65.36
75164;HTU21D;63746;45.402;37.922;2023-06-14T09:41:38;25.74;65.40
75164;HTU21D;63746;45.402;37.922;2023-06-14T09:44:06;25.69;65.35
75164;HTU21D;63746;45.402;37.922;2023-06-14T09:46:33;25.65;65.37
75164;HTU21D;63746;45.402;37.922;2023-06-14T09:49:00;25.64;65.40
75164;HTU21D;63746;45.402;37.922;2023-06-14T09:51:26;25.63;65.39
75164;HTU21D;63746;45.402;37.922;2023-06-14T09:53:58;25.58;65.39
75164;HTU21D;63746;45.402;37.922;2023-06-14T09:56:30;25.53;65.43
75164;HTU21D;63746;45.402;37.922;2023-06-14T09:58:57;25.49;65.42
75164;HTU21D;63746;45.402;37.922;2023-06-14T10:01:25;25.46;65.43
75164;HTU21D;63746;45.402;37.922;2023-06-14T10:04:02;25.43;65.58
75164;HTU21D;63746;45.402;37.922;2023-06-14T10:06:29;25.39;65.47
75164;HTU21D;63746;45.402;37.922;2023-06-14T10:08:59;25.35;65.54
75164;HTU21D;63746;45.402;37.922;2023-06-14T10:11:26;25.31;65.53
75164;HTU21D;63746;45.402;37.922;2023-06-14T10:13:56;25.27;65.60
75164;HTU21D;63746;45.402;37.922;2023-06-14T10:16:32;25.21;65.62
75164;HTU21D;63746;45.402;37.922;2023-06-14T10:19:07;25.16;65.66
75164;HTU21D;63746;45.402;37.922;2023-06-14T10:21:47;25.05;65.59
75164;HTU21D;63746;45.402;37.922;2023-06-14T10:24:17;24.91;65.63
75164;HTU21D;63746;45.402;37.922;2023-06-14T10:26:52;24.73;65.72
75164;HTU21D;63746;45.402;37.922;2023-06-14T10:29:19;24.57;65.80
75164;HTU21D;63746;45.402;37.922;2023-06-14T10:31:56;24.43;66.04
75164;HTU21D;63746;45.402;37.922;2023-06-14T10:34:24;24.28;66.17
75164;HTU21D;63746;45.402;37.922;2023-06-14T10:37:06;24.19;66.56
75164;HTU21D;63746;45.402;37.922;2023-06-14T10:39:38;24.17;66.53
75164;HTU21D;63746;45.402;37.922;2023-06-14T10:42:05;24.13;66.46
75164;HTU21D;63746;45.402;37.922;2023-06-14T10:44:43;24.09;66.72
75164;HTU21D;63746;45.402;37.922;2023-06-14T10:47:23;24.06;66.95
75164;HTU21D;63746;45.402;37.922;2023-06-14T10:52:32;24.06;66.59
75164;HTU21D;63746;45.402;37.922;2023-06-14T10:55:06;24.05;66.72
75164;HTU21D;63746;45.402;37.922;2023-06-14T10:57:44;24.06;66.59
75164;HTU21D;63746;45.402;37.922;2023-06-14T11:00:18;24.06;66.62
75164;HTU21D;63746;45.402;37.922;2023-06-14T11:08:51;24.10;67.33
75164;HTU21D;63746;45.402;37.922;2023-06-14T11:11:22;24.10;66.61
75164;HTU21D;63746;45.402;37.922;2023-06-14T11:13:51;24.10;66.61
75164;HTU21D;63746;45.402;37.922;2023-06-14T11:16:18;24.09;66.60
75164;HTU21D;63746;45.402;37.922;2023-06-14T11:18:47;24.11;66.60
75164;HTU21D;63746;45.402;37.922;2023-06-14T11:21:17;24.10;66.72
75164;HTU21D;63746;45.402;37.922;2023-06-14T11:23:53;24.13;66.74
75164;HTU21D;63746;45.402;37.922;2023-06-14T11:26:30;24.16;66.90
75164;HTU21D;63746;45.402;37.922;2023-06-14T11:29:00;24.16;66.68
75164;HTU21D;63746;45.402;37.922;2023-06-14T11:31:27;24.17;66.65
75164;HTU21D;63746;45.402;37.922;2023-06-14T11:33:54;24.20;66.65
75164;HTU21D;63746;45.402;37.922;2023-06-14T11:36:21;24.18;66.62
75164;HTU21D;63746;45.402;37.922;2023-06-14T11:38:47;24.19;66.62
75164;HTU21D;63746;45.402;37.922;2023-06-14T11:41:13;24.20;66.62
75164;HTU21D;63746;45.402;37.922;2023-06-14T11:43:39;24.20;66.64
75164;HTU21D;63746;45.402;37.922;2023-06-14T11:46:12;24.21;66.85
75164;HTU21D;63746;45.402;37.922;2023-06-14T11:48:43;24.24;66.81
75164;HTU21D;63746;45.402;37.922;2023-06-14T11:51:09;24.26;66.72
75164;HTU21D;63746;45.402;37.922;2023-06-14T11:53:35;24.28;66.72
75164;HTU21D;63746;45.402;37.922;2023-06-14T11:56:01;24.29;66.74
75164;HTU21D;63746;45.402;37.922;2023-06-14T11:58:29;24.33;66.83
75164;HTU21D;63746;45.402;37.922;2023-06-14T12:00:55;24.36;66.85
75164;HTU21D;63746;45.402;37.922;2023-06-14T12:03:25;24.44;66.98
75164;HTU21D;63746;45.402;37.922;2023-06-14T12:06:08;24.53;67.42
75164;HTU21D;63746;45.402;37.922;2023-06-14T12:08:38;24.62;66.94
75164;HTU21D;63746;45.402;37.922;2023-06-14T12:11:13;24.70;66.98
75164;HTU21D;63746;45.402;37.922;2023-06-14T12:13:39;24.84;66.92
75164;HTU21D;63746;45.402;37.922;2023-06-14T12:16:12;24.95;66.88
75164;HTU21D;63746;45.402;37.922;2023-06-14T12:18:39;25.07;66.80
75164;HTU21D;63746;45.402;37.922;2023-06-14T12:21:07;25.19;66.69
75164;HTU21D;63746;45.402;37.922;2023-06-14T12:24:03;25.33;67.21
75164;HTU21D;63746;45.402;37.922;2023-06-14T12:26:29;25.46;66.58
75164;HTU21D;63746;45.402;37.922;2023-06-14T12:28:55;25.58;66.48
75164;HTU21D;63746;45.402;37.922;2023-06-14T12:31:22;25.71;66.41
75164;HTU21D;63746;45.402;37.922;2023-06-14T12:33:48;25.81;66.27
75164;HTU21D;63746;45.402;37.922;2023-06-14T12:36:14;25.91;66.17
75164;HTU21D;63746;45.402;37.922;2023-06-14T12:38:40;25.98;66.09
75164;HTU21D;63746;45.402;37.922;2023-06-14T12:41:07;26.07;65.98
75164;HTU21D;63746;45.402;37.922;2023-06-14T12:43:33;26.12;65.88
75164;HTU21D;63746;45.402;37.922;2023-06-14T12:46:00;26.16;65.80
75164;HTU21D;63746;45.402;37.922;2023-06-14T12:48:26;26.19;65.75
75164;HTU21D;63746;45.402;37.922;2023-06-14T12:50:53;26.22;65.68
75164;HTU21D;63746;45.402;37.922;2023-06-14T12:53:19;26.23;65.64
75164;HTU21D;63746;45.402;37.922;2023-06-14T12:55:45;26.22;65.66
75164;HTU21D;63746;45.402;37.922;2023-06-14T12:58:11;26.25;65.68
75164;HTU21D;63746;45.402;37.922;2023-06-14T13:00:40;26.30;65.71
75164;HTU21D;63746;45.402;37.922;2023-06-14T13:03:06;26.36;65.72
75164;HTU21D;63746;45.402;37.922;2023-06-14T13:05:32;26.38;65.70
75164;HTU21D;63746;45.402;37.922;2023-06-14T13:07:59;26.45;65.66
75164;HTU21D;63746;45.402;37.922;2023-06-14T13:10:25;26.51;65.61
75164;HTU21D;63746;45.402;37.922;2023-06-14T13:12:51;26.54;65.54
75164;HTU21D;63746;45.402;37.922;2023-06-14T13:15:17;26.57;65.51
75164;HTU21D;63746;45.402;37.922;2023-06-14T13:17:43;26.60;65.49
75164;HTU21D;63746;45.402;37.922;2023-06-14T13:20:14;26.63;65.47
75164;HTU21D;63746;45.402;37.922;2023-06-14T13:22:41;26.65;65.43
75164;HTU21D;63746;45.402;37.922;2023-06-14T13:25:08;26.68;65.39
75164;HTU21D;63746;45.402;37.922;2023-06-14T13:27:33;26.70;65.37
75164;HTU21D;63746;45.402;37.922;2023-06-14T13:30:00;26.71;65.35
75164;HTU21D;63746;45.402;37.922;2023-06-14T13:32:26;26.72;65.31
75164;HTU21D;63746;45.402;37.922;2023-06-14T13:34:52;26.72;65.32
75164;HTU21D;63746;45.402;37.922;2023-06-14T13:37:18;26.71;65.26
75164;HTU21D;63746;45.402;37.922;2023-06-14T13:39:43;26.69;65.21
75164;HTU21D;63746;45.402;37.922;2023-06-14T13:42:09;26.65;65.17
75164;HTU21D;63746;45.402;37.922;2023-06-14T13:44:36;26.63;65.17
75164;HTU21D;63746;45.402;37.922;2023-06-14T13:47:02;26.57;65.20
75164;HTU21D;63746;45.402;37.922;2023-06-14T13:49:28;26.53;65.23
75164;HTU21D;63746;45.402;37.922;2023-06-14T13:51:54;26.50;65.25
75164;HTU21D;63746;45.402;37.922;2023-06-14T13:54:20;26.46;65.29
75164;HTU21D;63746;45.402;37.922;2023-06-14T13:56:47;26.43;65.36
75164;HTU21D;63746;45.402;37.922;2023-06-14T13:59:13;26.43;65.44
75164;HTU21D;63746;45.402;37.922;2023-06-14T14:01:39;26.47;65.52
75164;HTU21D;63746;45.402;37.922;2023-06-14T14:04:05;26.50;65.52
75164;HTU21D;63746;45.402;37.922;2023-06-14T14:06:31;26.52;65.47
75164;HTU21D;63746;45.402;37.922;2023-06-14T14:08:57;26.55;65.44
75164;HTU21D;63746;45.402;37.922;2023-06-14T14:11:23;26.55;65.41
75164;HTU21D;63746;45.402;37.922;2023-06-14T14:13:49;26.58;65.40
75164;HTU21D;63746;45.402;37.922;2023-06-14T14:16:15;26.60;65.37
75164;HTU21D;63746;45.402;37.922;2023-06-14T14:18:41;26.61;65.32
75164;HTU21D;63746;45.402;37.922;2023-06-14T14:21:07;26.60;65.33
75164;HTU21D;63746;45.402;37.922;2023-06-14T14:23:35;26.61;65.31
75164;HTU21D;63746;45.402;37.922;2023-06-14T14:26:01;26.58;65.24
75164;HTU21D;63746;45.402;37.922;2023-06-14T14:28:30;26.54;65.17
75164;HTU21D;63746;45.402;37.922;2023-06-14T14:30:56;26.49;65.16
75164;HTU21D;63746;45.402;37.922;2023-06-14T14:33:22;26.45;65.19
75164;HTU21D;63746;45.402;37.922;2023-06-14T14:35:49;26.38;65.24
75164;HTU21D;63746;45.402;37.922;2023-06-14T14:38:15;26.35;65.27
75164;HTU21D;63746;45.402;37.922;2023-06-14T14:40:42;26.32;65.31
75164;HTU21D;63746;45.402;37.922;2023-06-14T14:43:09;26.30;65.33
75164;HTU21D;63746;45.402;37.922;2023-06-14T14:45:36;26.25;65.36
75164;HTU21D;63746;45.402;37.922;2023-06-14T14:48:02;26.22;65.35
75164;HTU21D;63746;45.402;37.922;2023-06-14T14:50:29;26.19;65.37
75164;HTU21D;63746;45.402;37.922;2023-06-14T14:52:55;26.17;65.39
75164;HTU21D;63746;45.402;37.922;2023-06-14T14:55:22;26.13;65.43
75164;HTU21D;63746;45.402;37.922;2023-06-14T14:57:48;26.11;65.43
75164;HTU21D;63746;45.402;37.922;2023-06-14T15:00:14;26.09;65.43
75164;HTU21D;63746;45.402;37.922;2023-06-14T15:02:40;26.08;65.42
75164;HTU21D;63746;45.402;37.922;2023-06-14T15:05:06;26.04;65.44
75164;HTU21D;63746;45.402;37.922;2023-06-14T15:07:32;26.02;65.46
75164;HTU21D;63746;45.402;37.922;2023-06-14T15:10:00;26.01;65.48
75164;HTU21D;63746;45.402;37.922;2023-06-14T15:12:26;25.99;65.46
75164;HTU21D;63746;45.402;37.922;2023-06-14T15:14:52;25.95;65.45
75164;HTU21D;63746;45.402;37.922;2023-06-14T15:17:19;25.93;65.43
75164;HTU21D;63746;45.402;37.922;2023-06-14T15:19:46;25.88;65.43